Time;durP1;ratioP1;P1;durP2;ratioP2;P2;SDS_P1;SDS_P2;PMS_P1;PMS_P2;Temp;Humidity;BMP_temperature;BMP_pressure;BME280_temperature;BME280_humidity;BME280_pressure;Samples;Min_cycle;Max_cycle;Signal;HPM_P1;HPM_P2
2021/04/26 00:00:26;;;;;;;3.78;2.03;;;6.20;49.70;;;;;;5034469;28;20103;-56
2021/04/26 00:02:53;;;;;;;3.08;2.00;;;6.30;49.50;;;;;;5039194;28;20552;-57
2021/04/26 00:05:19;;;;;;;2.72;2.10;;;6.20;49.50;;;;;;5013605;28;20489;-58
2021/04/26 00:07:45;;;;;;;5.57;2.10;;;6.30;49.60;;;;;;5031756;28;20025;-58
2021/04/26 00:10:11;;;;;;;3.15;2.20;;;6.30;49.60;;;;;;5034669;28;20037;-58
2021/04/26 00:12:38;;;;;;;4.65;2.33;;;6.40;49.50;;;;;;5028130;28;20029;-56
2021/04/26 00:15:06;;;;;;;2.15;1.90;;;6.30;49.40;;;;;;5043818;28;20099;-56
2021/04/26 00:17:32;;;;;;;3.25;2.00;;;6.30;49.20;;;;;;5035282;28;20033;-57
2021/04/26 00:19:58;;;;;;;3.72;2.22;;;6.20;49.40;;;;;;5026930;28;20033;-57
2021/04/26 00:22:23;;;;;;;3.17;2.03;;;6.20;49.60;;;;;;5022907;28;20092;-59
2021/04/26 00:24:49;;;;;;;3.17;1.98;;;6.10;49.60;;;;;;5024364;28;20431;-59
2021/04/26 00:27:14;;;;;;;4.32;2.15;;;6.20;49.70;;;;;;5033097;28;20041;-57
2021/04/26 00:29:40;;;;;;;2.60;2.05;;;6.20;50.10;;;;;;5037010;28;20049;-58
2021/04/26 00:32:06;;;;;;;4.65;2.00;;;6.20;50.90;;;;;;5023319;28;20046;-58
2021/04/26 00:34:31;;;;;;;3.97;2.40;;;6.30;50.90;;;;;;5042433;28;20124;-58
2021/04/26 00:36:57;;;;;;;2.88;2.13;;;6.30;52.20;;;;;;5020353;28;20036;-58
2021/04/26 00:39:22;;;;;;;5.05;2.33;;;6.30;54.20;;;;;;5042863;28;20048;-58
2021/04/26 00:41:48;;;;;;;4.07;1.92;;;6.30;54.90;;;;;;5032072;28;20058;-56
2021/04/26 00:44:13;;;;;;;2.55;2.05;;;6.30;55.50;;;;;;5027605;28;20037;-56
2021/04/26 00:46:39;;;;;;;2.97;2.00;;;6.30;55.40;;;;;;5035163;28;20047;-57
2021/04/26 00:49:05;;;;;;;2.17;1.80;;;6.30;55.60;;;;;;5044624;28;20048;-57
2021/04/26 00:51:30;;;;;;;2.53;2.25;;;6.30;56.30;;;;;;5040458;28;20037;-58
2021/04/26 00:53:56;;;;;;;3.53;2.25;;;6.30;57.20;;;;;;5024501;28;20034;-57
2021/04/26 00:56:22;;;;;;;2.45;2.00;;;6.20;57.90;;;;;;5015599;28;20116;-58
2021/04/26 00:58:48;;;;;;;3.17;1.90;;;6.20;58.50;;;;;;5041138;28;20034;-58
2021/04/26 01:01:16;;;;;;;4.40;2.40;;;6.10;58.50;;;;;;5028099;28;20018;-57
2021/04/26 01:03:42;;;;;;;3.60;2.45;;;6.10;58.10;;;;;;5025429;28;20026;-58
2021/04/26 01:06:07;;;;;;;5.18;2.22;;;6.10;57.80;;;;;;5020882;28;20634;-58
2021/04/26 01:08:33;;;;;;;2.70;2.00;;;6.10;57.10;;;;;;5019288;28;20586;-57
2021/04/26 01:10:59;;;;;;;3.15;1.90;;;6.00;56.60;;;;;;5042294;28;20057;-59
2021/04/26 01:13:45;;;;;;;3.42;2.08;;;6.00;55.30;;;;;;5031440;28;20045;-58
2021/04/26 01:16:25;;;;;;;2.78;1.85;;;6.00;56.60;;;;;;5017564;28;20521;-56
2021/04/26 01:19:12;;;;;;;3.30;2.28;;;6.00;57.90;;;;;;5029240;28;20029;-56
2021/04/26 01:22:02;;;;;;;3.15;2.35;;;5.90;57.30;;;;;;5038165;28;20024;-57
2021/04/26 01:24:58;;;;;;;3.97;2.13;;;5.90;57.50;;;;;;5029544;28;20435;-59
2021/04/26 01:27:36;;;;;;;;;;;5.90;58.20;;;;;;5025518;28;20036;-59
2021/04/26 01:30:21;;;;;;;2.80;2.28;;;5.80;58.30;;;;;;5030909;28;19955;-54
2021/04/26 01:32:53;;;;;;;3.20;2.33;;;5.70;59.40;;;;;;5042417;28;20041;-58
2021/04/26 01:35:21;;;;;;;3.30;2.35;;;5.70;60.40;;;;;;5040465;28;20461;-54
2021/04/26 01:37:55;;;;;;;4.30;2.60;;;5.70;61.90;;;;;;5026474;28;20026;-57
2021/04/26 01:40:22;;;;;;;3.53;2.13;;;5.60;63.50;;;;;;5018579;28;20030;-58
2021/04/26 01:42:52;;;;;;;3.88;2.67;;;5.50;64.40;;;;;;5022594;28;20038;-58
2021/04/26 01:45:19;;;;;;;2.97;1.98;;;5.50;65.10;;;;;;5039176;28;20054;-57
2021/04/26 01:47:47;;;;;;;3.22;2.30;;;5.50;66.30;;;;;;5033176;28;20041;-59
2021/04/26 01:50:14;;;;;;;3.78;2.30;;;5.50;67.20;;;;;;5022107;28;20096;-58
2021/04/26 01:52:40;;;;;;;3.08;2.50;;;5.50;67.70;;;;;;5034622;28;20025;-57
2021/04/26 01:55:08;;;;;;;3.25;2.38;;;5.40;68.40;;;;;;5033674;28;20515;-57
2021/04/26 01:57:36;;;;;;;4.40;2.20;;;5.40;68.80;;;;;;5026400;28;20396;-58
2021/04/26 02:00:35;;;;;;;3.90;2.53;;;5.30;69.10;;;;;;5037485;28;20476;-57
2021/04/26 02:03:02;;;;;;;5.20;2.60;;;5.30;69.10;;;;;;5012623;28;20075;-56
2021/04/26 02:05:29;;;;;;;5.25;2.35;;;5.20;69.30;;;;;;5034668;28;20022;-55
2021/04/26 02:07:55;;;;;;;3.45;2.38;;;5.20;69.90;;;;;;5032876;28;20040;-59
2021/04/26 02:10:28;;;;;;;3.35;2.35;;;5.10;70.90;;;;;;5047643;28;20044;-58
2021/04/26 02:12:55;;;;;;;3.80;2.20;;;5.10;70.80;;;;;;5033008;28;20041;-57
2021/04/26 02:15:21;;;;;;;4.63;2.70;;;5.10;70.80;;;;;;5031470;28;20501;-57
2021/04/26 02:17:48;;;;;;;4.75;2.70;;;5.20;70.60;;;;;;5031419;28;20096;-59
2021/04/26 02:20:15;;;;;;;5.03;2.50;;;5.20;70.10;;;;;;5021450;28;20037;-57
2021/04/26 02:22:41;;;;;;;4.63;2.72;;;5.20;69.60;;;;;;5042404;28;20040;-57
2021/04/26 02:25:09;;;;;;;3.70;2.50;;;5.20;69.30;;;;;;5040282;28;20033;-57
2021/04/26 02:27:35;;;;;;;3.42;2.45;;;5.20;68.90;;;;;;5034471;28;20091;-57
2021/04/26 02:30:01;;;;;;;3.50;2.30;;;5.20;69.10;;;;;;5033893;28;20026;-58
2021/04/26 02:32:33;;;;;;;3.22;2.60;;;5.20;70.00;;;;;;5040950;28;20052;-58
2021/04/26 02:35:03;;;;;;;4.03;2.25;;;5.10;71.50;;;;;;5043539;28;20025;-55
2021/04/26 02:37:34;;;;;;;4.47;2.33;;;5.10;72.50;;;;;;5035596;28;20033;-58
2021/04/26 02:40:06;;;;;;;5.22;2.50;;;5.10;73.10;;;;;;5029823;28;20026;-58
2021/04/26 02:42:35;;;;;;;4.25;2.60;;;5.10;73.00;;;;;;5030541;28;20099;-56
2021/04/26 02:45:01;;;;;;;5.82;2.38;;;5.10;72.90;;;;;;5040570;28;20071;-59
2021/04/26 02:47:28;;;;;;;4.90;2.70;;;5.10;72.50;;;;;;5041240;28;20382;-57
2021/04/26 02:49:54;;;;;;;5.60;2.60;;;5.10;72.20;;;;;;5032868;28;20033;-58
2021/04/26 02:52:20;;;;;;;2.78;2.28;;;5.10;71.90;;;;;;5026361;28;20481;-55
2021/04/26 02:54:48;;;;;;;3.55;2.40;;;5.10;72.00;;;;;;5037737;28;20351;-56
2021/04/26 02:57:14;;;;;;;2.70;2.20;;;5.10;72.10;;;;;;5025039;28;20115;-58
2021/04/26 02:59:42;;;;;;;3.38;2.35;;;5.10;72.20;;;;;;5046390;28;20044;-56
2021/04/26 03:02:08;;;;;;;5.68;3.00;;;5.00;72.30;;;;;;5033614;28;20075;-58
2021/04/26 03:04:34;;;;;;;4.30;2.45;;;4.90;72.80;;;;;;5024087;28;20061;-55
2021/04/26 03:07:02;;;;;;;5.03;2.60;;;4.80;73.20;;;;;;5023041;28;20057;-59
2021/04/26 03:09:29;;;;;;;4.00;2.50;;;4.80;73.00;;;;;;5034529;28;20033;-58
2021/04/26 03:11:55;;;;;;;5.38;2.83;;;4.70;72.80;;;;;;5035671;28;20044;-56
2021/04/26 03:14:24;;;;;;;3.15;2.70;;;4.60;73.40;;;;;;5028496;28;20038;-58
2021/04/26 03:16:51;;;;;;;3.47;2.22;;;4.60;73.60;;;;;;5034981;28;20037;-58
2021/04/26 03:19:18;;;;;;;2.78;2.30;;;4.50;73.60;;;;;;5021167;28;20026;-58
2021/04/26 03:21:46;;;;;;;7.43;3.90;;;4.50;73.60;;;;;;5032662;28;20032;-59
2021/04/26 03:24:14;;;;;;;5.20;3.03;;;4.50;73.60;;;;;;5034509;28;20022;-59
2021/04/26 03:26:43;;;;;;;4.07;2.63;;;4.40;72.50;;;;;;5030042;28;20512;-57
2021/04/26 03:29:10;;;;;;;4.03;2.40;;;4.30;72.60;;;;;;5028107;28;20679;-60
2021/04/26 03:31:36;;;;;;;5.00;2.60;;;4.30;73.00;;;;;;5030485;28;20048;-58
2021/04/26 03:34:02;;;;;;;4.60;3.00;;;4.30;74.60;;;;;;5043885;28;20041;-58
2021/04/26 03:36:29;;;;;;;4.45;2.55;;;4.30;75.10;;;;;;5037596;28;20043;-57
2021/04/26 03:38:55;;;;;;;7.38;3.03;;;4.30;75.30;;;;;;5034008;28;20035;-55
2021/04/26 03:41:20;;;;;;;7.40;2.63;;;4.30;75.20;;;;;;5016907;28;20113;-57
2021/04/26 03:43:46;;;;;;;5.38;2.90;;;4.30;74.80;;;;;;5032120;28;20037;-57
2021/04/26 03:46:12;;;;;;;5.60;2.88;;;4.30;73.20;;;;;;5036325;28;20549;-57
2021/04/26 03:48:38;;;;;;;4.47;3.10;;;4.20;73.10;;;;;;5036329;28;20076;-59
2021/04/26 03:51:05;;;;;;;4.45;3.08;;;4.10;73.20;;;;;;5022081;28;20058;-58
2021/04/26 03:53:30;;;;;;;3.90;2.95;;;4.10;73.40;;;;;;5031079;28;20514;-57
2021/04/26 03:55:56;;;;;;;4.72;2.70;;;4.20;72.80;;;;;;5041030;28;20037;-58
2021/04/26 03:58:22;;;;;;;6.53;3.67;;;4.20;72.30;;;;;;5042449;28;20112;-58
2021/04/26 04:00:48;;;;;;;5.80;3.25;;;4.20;72.40;;;;;;5038196;28;20452;-59
2021/04/26 04:03:13;;;;;;;4.50;3.13;;;4.20;72.60;;;;;;5043107;28;20676;-58
2021/04/26 04:05:40;;;;;;;8.85;3.30;;;4.20;72.90;;;;;;5031508;28;20029;-59
2021/04/26 04:08:06;;;;;;;7.05;3.45;;;4.20;73.20;;;;;;5014347;28;20033;-58
2021/04/26 04:10:32;;;;;;;6.22;3.05;;;4.30;73.10;;;;;;5028204;28;20038;-56
2021/04/26 04:12:58;;;;;;;7.13;3.10;;;4.40;73.20;;;;;;5027452;28;20526;-57
2021/04/26 04:15:24;;;;;;;4.75;3.10;;;4.40;73.50;;;;;;5038368;28;20037;-57
2021/04/26 04:17:50;;;;;;;5.13;3.13;;;4.30;74.30;;;;;;5017591;28;20084;-57
2021/04/26 04:20:16;;;;;;;5.03;3.00;;;4.30;74.30;;;;;;5034834;28;20128;-58
2021/04/26 04:22:41;;;;;;;7.32;3.38;;;4.30;74.50;;;;;;5038659;28;20454;-55
2021/04/26 04:25:09;;;;;;;7.45;3.00;;;4.20;75.40;;;;;;5039027;28;20057;-60
2021/04/26 04:27:35;;;;;;;6.10;3.55;;;4.30;75.10;;;;;;5028010;28;20037;-58
2021/04/26 04:30:01;;;;;;;5.18;3.30;;;4.20;74.40;;;;;;5030698;28;20509;-60
2021/04/26 04:32:27;;;;;;;6.50;3.53;;;4.20;73.60;;;;;;5047103;28;20037;-57
2021/04/26 04:34:53;;;;;;;6.10;3.30;;;4.10;73.30;;;;;;5044576;28;20163;-58
2021/04/26 04:37:18;;;;;;;6.93;3.30;;;4.10;73.30;;;;;;5036105;28;20033;-58
2021/04/26 04:39:44;;;;;;;6.78;3.00;;;3.90;73.40;;;;;;5030615;28;20100;-59
2021/04/26 04:42:10;;;;;;;5.40;3.15;;;4.00;72.50;;;;;;5026379;28;20057;-58
2021/04/26 04:44:35;;;;;;;4.90;2.92;;;4.00;71.70;;;;;;5029259;28;20101;-58
2021/04/26 04:47:01;;;;;;;5.85;3.00;;;4.00;71.40;;;;;;5039634;28;20400;-58
2021/04/26 04:49:26;;;;;;;5.00;2.92;;;4.00;71.50;;;;;;5042707;28;20059;-58
2021/04/26 04:51:52;;;;;;;4.07;2.67;;;3.90;70.90;;;;;;5018532;28;20093;-57
2021/04/26 04:54:18;;;;;;;6.55;3.00;;;3.90;70.60;;;;;;5044507;28;20135;-56
2021/04/26 04:56:44;;;;;;;4.30;3.35;;;4.00;70.60;;;;;;5021107;28;20037;-56
2021/04/26 04:59:09;;;;;;;5.35;3.08;;;4.10;70.20;;;;;;5049744;28;20525;-58
2021/04/26 05:01:35;;;;;;;7.93;3.70;;;4.10;70.10;;;;;;5039125;28;20398;-60
2021/04/26 05:04:02;;;;;;;6.28;3.38;;;4.10;69.10;;;;;;5023061;28;20026;-59
2021/04/26 05:06:27;;;;;;;6.80;3.20;;;3.90;70.30;;;;;;5030592;28;20038;-56
2021/04/26 05:08:53;;;;;;;6.20;2.70;;;3.90;69.70;;;;;;5023243;28;20056;-55
2021/04/26 05:11:19;;;;;;;6.47;2.88;;;4.00;70.00;;;;;;5043487;28;20116;-58
2021/04/26 05:13:45;;;;;;;6.32;3.67;;;3.80;70.60;;;;;;5033240;28;20087;-57
2021/04/26 05:16:11;;;;;;;7.10;2.72;;;3.80;71.10;;;;;;5027995;28;20034;-59
2021/04/26 05:18:37;;;;;;;8.30;3.70;;;4.00;70.20;;;;;;5024478;28;20037;-58
2021/04/26 05:21:03;;;;;;;7.07;3.35;;;4.10;69.70;;;;;;5021605;28;20013;-58
2021/04/26 05:23:30;;;;;;;4.97;2.63;;;4.10;69.90;;;;;;5041285;28;20444;-57
2021/04/26 05:25:56;;;;;;;5.30;2.97;;;4.20;69.70;;;;;;5030002;28;20069;-59
2021/04/26 05:28:22;;;;;;;9.57;4.40;;;4.30;69.30;;;;;;5028468;28;20117;-58
2021/04/26 05:30:47;;;;;;;6.00;3.50;;;4.50;68.60;;;;;;5027030;28;20374;-59
2021/04/26 05:33:15;;;;;;;8.02;3.28;;;4.60;68.40;;;;;;5048279;28;20449;-59
2021/04/26 05:35:40;;;;;;;5.95;2.78;;;4.60;67.90;;;;;;5038987;28;20496;-57
2021/04/26 05:38:11;;;;;;;9.15;4.05;;;4.70;67.70;;;;;;5035668;28;20041;-59
2021/04/26 05:40:37;;;;;;;6.28;2.90;;;4.80;67.70;;;;;;5027693;28;20034;-60
2021/04/26 05:43:04;;;;;;;9.30;3.30;;;4.90;67.90;;;;;;5040599;28;20032;-61
2021/04/26 05:45:30;;;;;;;7.28;3.42;;;5.00;68.10;;;;;;5045266;28;20488;-59
2021/04/26 05:47:56;;;;;;;5.22;3.30;;;5.10;67.60;;;;;;5036629;28;20037;-58
2021/04/26 05:50:21;;;;;;;5.90;3.30;;;5.10;66.90;;;;;;5035262;28;20508;-58
2021/04/26 05:52:47;;;;;;;5.03;3.35;;;5.20;67.00;;;;;;5041892;28;20072;-59
2021/04/26 05:55:12;;;;;;;9.30;3.45;;;5.30;66.50;;;;;;5025977;28;20095;-59
2021/04/26 05:57:38;;;;;;;9.63;3.45;;;5.50;65.30;;;;;;5035874;28;20080;-60
2021/04/26 06:00:05;;;;;;;8.93;3.47;;;5.50;64.80;;;;;;5049563;28;20433;-59
2021/04/26 06:02:31;;;;;;;11.90;3.80;;;5.50;65.10;;;;;;5036799;28;20513;-54
2021/04/26 06:04:56;;;;;;;8.57;3.30;;;5.50;64.00;;;;;;5035732;28;20041;-59
2021/04/26 06:07:22;;;;;;;8.15;3.90;;;5.60;64.40;;;;;;5022255;28;20046;-58
2021/04/26 06:09:47;;;;;;;8.98;4.50;;;5.70;64.40;;;;;;5039073;28;20052;-58
2021/04/26 06:12:13;;;;;;;7.82;3.63;;;5.80;64.20;;;;;;5037170;28;20030;-58
2021/04/26 06:14:38;;;;;;;7.80;3.80;;;5.90;63.80;;;;;;5036026;28;20239;-57
2021/04/26 06:17:04;;;;;;;9.65;3.80;;;5.80;64.10;;;;;;5019383;28;20037;-55
2021/04/26 06:19:29;;;;;;;9.40;3.45;;;5.90;63.70;;;;;;5024545;28;20112;-56
2021/04/26 06:21:55;;;;;;;5.07;3.72;;;5.80;63.70;;;;;;5046294;28;20508;-60
2021/04/26 06:24:21;;;;;;;5.70;3.28;;;6.00;62.90;;;;;;5034657;28;20021;-58
2021/04/26 06:26:46;;;;;;;10.60;3.75;;;6.10;62.60;;;;;;5033444;28;20469;-60
2021/04/26 06:29:12;;;;;;;7.97;3.38;;;6.30;62.20;;;;;;5026626;28;20048;-60
2021/04/26 06:31:37;;;;;;;6.93;3.10;;;6.30;61.70;;;;;;5038954;28;20397;-59
2021/04/26 06:34:03;;;;;;;10.30;4.03;;;6.30;61.60;;;;;;5051722;28;20036;-59
2021/04/26 06:36:29;;;;;;;5.20;3.17;;;6.40;60.90;;;;;;5034141;28;20038;-58
2021/04/26 06:38:55;;;;;;;6.05;3.00;;;6.60;60.60;;;;;;5034378;28;20104;-57
2021/04/26 06:41:20;;;;;;;10.13;3.58;;;6.70;60.00;;;;;;5026965;28;20034;-60
2021/04/26 06:43:46;;;;;;;7.63;3.30;;;6.70;59.30;;;;;;5037145;28;20082;-60
2021/04/26 06:46:11;;;;;;;8.73;3.60;;;6.70;58.80;;;;;;5042656;28;20033;-59
2021/04/26 06:48:37;;;;;;;8.90;3.40;;;6.90;57.80;;;;;;5039136;28;20033;-59
2021/04/26 06:51:03;;;;;;;5.43;3.42;;;7.00;57.40;;;;;;5042215;28;20088;-60
2021/04/26 06:53:28;;;;;;;8.60;3.20;;;7.10;57.00;;;;;;5034032;28;20508;-59
2021/04/26 06:55:54;;;;;;;6.75;3.88;;;7.20;56.80;;;;;;5028028;28;20021;-59
2021/04/26 06:58:20;;;;;;;5.55;3.35;;;7.40;56.20;;;;;;5050209;28;20048;-59
2021/04/26 07:00:45;;;;;;;11.13;3.92;;;7.20;55.90;;;;;;5043565;28;20182;-59
2021/04/26 07:03:11;;;;;;;5.43;3.47;;;7.10;56.60;;;;;;5034588;28;20030;-60
2021/04/26 07:05:39;;;;;;;7.20;2.95;;;7.20;56.00;;;;;;5022535;28;20033;-58
2021/04/26 07:08:05;;;;;;;6.60;3.17;;;7.30;55.70;;;;;;5030505;28;20045;-59
2021/04/26 07:10:32;;;;;;;6.57;3.40;;;7.30;55.60;;;;;;5043874;28;20091;-62
2021/04/26 07:12:58;;;;;;;5.38;3.50;;;7.40;55.20;;;;;;5029302;28;20029;-60
2021/04/26 07:15:24;;;;;;;6.70;3.72;;;7.70;54.60;;;;;;5030661;28;20036;-60
2021/04/26 07:17:49;;;;;;;7.22;3.33;;;7.70;54.50;;;;;;5037004;28;20040;-60
2021/04/26 07:20:15;;;;;;;7.35;3.33;;;7.80;54.40;;;;;;5025723;28;20045;-59
2021/04/26 07:22:41;;;;;;;8.50;3.90;;;7.90;53.80;;;;;;5035893;28;20037;-60
2021/04/26 07:25:08;;;;;;;5.38;3.50;;;8.00;53.10;;;;;;5031427;28;20064;-58
2021/04/26 07:27:34;;;;;;;6.90;3.70;;;8.10;53.30;;;;;;5031728;28;20033;-56
2021/04/26 07:29:59;;;;;;;6.93;3.60;;;8.20;53.10;;;;;;5031224;28;20033;-56
2021/04/26 07:32:26;;;;;;;7.30;3.30;;;8.20;52.30;;;;;;5032280;28;20401;-59
2021/04/26 07:34:52;;;;;;;7.75;3.38;;;8.40;51.70;;;;;;5036089;28;20034;-52
2021/04/26 07:37:19;;;;;;;6.45;3.35;;;8.40;50.80;;;;;;5035090;28;20133;-57
2021/04/26 07:39:45;;;;;;;6.45;3.30;;;8.40;50.40;;;;;;5033199;28;20018;-58
2021/04/26 07:42:10;;;;;;;5.60;2.80;;;8.50;50.00;;;;;;5034121;28;20429;-59
2021/04/26 07:44:37;;;;;;;8.32;3.97;;;8.50;49.70;;;;;;5027435;28;20038;-57
2021/04/26 07:47:03;;;;;;;6.65;2.90;;;8.60;50.10;;;;;;5035342;28;20128;-59
2021/04/26 07:49:29;;;;;;;5.60;2.80;;;8.70;50.10;;;;;;5037329;28;20485;-59
2021/04/26 07:51:55;;;;;;;7.78;2.90;;;8.80;49.20;;;;;;5032817;28;20040;-58
2021/04/26 07:54:20;;;;;;;5.47;2.60;;;8.50;49.30;;;;;;5032439;28;20072;-55
2021/04/26 07:56:46;;;;;;;4.95;2.50;;;8.30;50.40;;;;;;5033372;28;20033;-59
2021/04/26 07:59:12;;;;;;;5.07;2.70;;;8.30;51.10;;;;;;5030567;28;20025;-60
2021/04/26 08:01:37;;;;;;;7.45;2.42;;;8.20;51.60;;;;;;5025860;28;20095;-60
2021/04/26 08:04:03;;;;;;;3.35;2.30;;;8.30;51.00;;;;;;5026115;28;20045;-58
2021/04/26 08:06:29;;;;;;;5.40;2.30;;;8.50;52.00;;;;;;5029765;28;20680;-58
2021/04/26 08:08:54;;;;;;;4.32;2.63;;;8.70;50.10;;;;;;5035969;28;20079;-59
2021/04/26 08:11:20;;;;;;;5.00;2.40;;;8.40;50.20;;;;;;5034201;28;20087;-60
2021/04/26 08:13:46;;;;;;;4.28;2.35;;;8.30;50.20;;;;;;5029657;28;20044;-59
2021/04/26 08:16:12;;;;;;;5.57;2.47;;;8.40;50.60;;;;;;5031717;28;20125;-58
2021/04/26 08:18:37;;;;;;;9.30;5.22;;;8.50;50.50;;;;;;5033689;28;20055;-58
2021/04/26 08:21:03;;;;;;;4.65;2.30;;;8.40;49.90;;;;;;5033620;28;20159;-58
2021/04/26 08:23:29;;;;;;;2.63;2.15;;;8.50;49.70;;;;;;5029371;28;20029;-59
2021/04/26 08:25:55;;;;;;;4.00;2.30;;;8.50;48.40;;;;;;5030962;28;20037;-57
2021/04/26 08:28:21;;;;;;;3.22;2.15;;;8.30;48.80;;;;;;5031353;28;20055;-56
2021/04/26 08:30:48;;;;;;;3.97;2.60;;;8.40;48.90;;;;;;5031405;28;20366;-59
2021/04/26 08:33:13;;;;;;;4.93;2.83;;;8.70;48.70;;;;;;5034135;28;20041;-59
2021/04/26 08:35:39;;;;;;;4.00;2.83;;;8.70;48.20;;;;;;5029186;28;20034;-58
2021/04/26 08:38:05;;;;;;;4.90;2.50;;;8.70;48.40;;;;;;5036646;28;20048;-59
2021/04/26 08:40:30;;;;;;;6.72;3.90;;;8.60;48.10;;;;;;5029037;28;20038;-59
2021/04/26 08:43:05;;;;;;;4.20;3.13;;;8.70;47.90;;;;;;5033897;28;20033;-60
2021/04/26 08:45:30;;;;;;;5.95;3.45;;;8.60;48.80;;;;;;5030805;28;20046;-60
2021/04/26 08:47:56;;;;;;;5.53;2.75;;;8.70;48.80;;;;;;5017054;28;20041;-60
2021/04/26 08:50:24;;;;;;;7.72;2.70;;;8.70;48.30;;;;;;5039903;28;20113;-58
2021/04/26 08:52:50;;;;;;;5.70;2.58;;;8.70;48.90;;;;;;5033270;28;20112;-57
2021/04/26 08:55:17;;;;;;;4.45;2.65;;;8.90;48.10;;;;;;5022023;28;20117;-57
2021/04/26 08:57:44;;;;;;;3.80;2.42;;;9.00;48.00;;;;;;5028702;28;20099;-58
2021/04/26 09:00:10;;;;;;;3.13;2.28;;;9.00;46.90;;;;;;5030035;28;20037;-58
2021/04/26 09:03:06;;;;;;;4.78;2.88;;;9.00;47.50;;;;;;5019677;28;20025;-59
2021/04/26 09:05:35;;;;;;;4.22;2.42;;;9.10;47.30;;;;;;5028738;28;20516;-59
2021/04/26 09:08:03;;;;;;;8.98;2.88;;;9.30;47.10;;;;;;5027994;28;20095;-59
2021/04/26 09:10:50;;;;;;;5.25;2.53;;;9.30;46.80;;;;;;5024456;28;20129;-58
2021/04/26 09:13:39;;;;;;;4.28;2.60;;;9.30;46.60;;;;;;5017228;28;20102;-59
2021/04/26 09:16:10;;;;;;;6.50;2.78;;;9.20;47.20;;;;;;5028494;28;20134;-58
2021/04/26 09:19:02;;;;;;;5.00;2.83;;;9.40;47.60;;;;;;5016947;28;20034;-59
2021/04/26 09:21:29;;;;;;;5.07;2.60;;;9.70;47.10;;;;;;5035826;28;20056;-60
2021/04/26 09:24:18;;;;;;;5.97;2.65;;;9.70;45.90;;;;;;5033410;28;20037;-58
2021/04/26 09:26:49;;;;;;;4.30;2.67;;;9.30;45.70;;;;;;5028537;28;20037;-60
2021/04/26 09:29:24;;;;;;;7.45;2.55;;;9.10;46.40;;;;;;5028165;28;20036;-60
2021/04/26 09:32:08;;;;;;;4.30;2.42;;;9.30;46.70;;;;;;5029170;28;20033;-60
2021/04/26 09:34:36;;;;;;;4.35;2.25;;;8.90;46.80;;;;;;5027348;28;20808;-60
2021/04/26 09:37:22;;;;;;;4.13;2.20;;;9.00;47.40;;;;;;5029080;28;20039;-57
2021/04/26 09:40:05;;;;;;;3.90;2.55;;;8.80;47.40;;;;;;5032017;28;20029;-58
2021/04/26 09:42:48;;;;;;;5.00;2.45;;;8.70;47.70;;;;;;5029618;28;20100;-59
2021/04/26 09:45:39;;;;;;;4.53;2.50;;;8.70;46.30;;;;;;5031064;28;20437;-56
2021/04/26 09:48:16;;;;;;;4.68;2.63;;;9.00;46.20;;;;;;5028621;28;20041;-58
2021/04/26 09:51:03;;;;;;;5.55;2.53;;;8.90;46.80;;;;;;5029372;28;20036;-60
2021/04/26 09:53:43;;;;;;;5.40;2.78;;;9.20;46.60;;;;;;5022962;28;20394;-58
2021/04/26 09:56:09;;;;;;;3.60;2.28;;;9.50;46.80;;;;;;5050917;28;20120;-56
2021/04/26 09:58:35;;;;;;;4.97;2.45;;;9.50;45.90;;;;;;5018659;28;20122;-59
2021/04/26 10:01:01;;;;;;;3.72;2.53;;;9.30;45.40;;;;;;5041774;28;20030;-59
2021/04/26 10:03:27;;;;;;;3.95;2.72;;;9.30;45.70;;;;;;5033334;28;20037;-59
2021/04/26 10:05:52;;;;;;;7.78;3.60;;;9.20;46.00;;;;;;5023612;28;20037;-59
2021/04/26 10:08:18;;;;;;;4.07;2.35;;;8.90;46.20;;;;;;5021686;28;20508;-61
2021/04/26 10:10:45;;;;;;;3.88;2.67;;;8.90;46.40;;;;;;5017871;28;20072;-58
2021/04/26 10:13:11;;;;;;;4.38;2.47;;;9.10;47.60;;;;;;5021509;28;20030;-59
2021/04/26 10:15:37;;;;;;;6.30;3.03;;;9.30;47.10;;;;;;5027228;28;20607;-59
2021/04/26 10:18:09;;;;;;;5.20;2.70;;;9.90;48.90;;;;;;5023016;28;20512;-58
2021/04/26 10:20:41;;;;;;;5.00;2.90;;;10.20;48.30;;;;;;5016485;28;20034;-60
2021/04/26 10:23:48;;;;;;;4.70;2.42;;;10.30;47.60;;;;;;5017374;28;20034;-58
2021/04/26 10:26:40;;;;;;;3.42;2.50;;;10.60;44.50;;;;;;4988073;28;20039;-59
2021/04/26 10:29:26;;;;;;;3.25;2.60;;;10.80;43.40;;;;;;4994923;28;20030;-59
2021/04/26 10:32:01;;;;;;;4.82;2.85;;;10.70;44.00;;;;;;5031674;28;20042;-59
2021/04/26 10:34:41;;;;;;;12.52;3.30;;;11.30;43.20;;;;;;5019356;28;20117;-57
2021/04/26 10:37:16;;;;;;;6.25;2.90;;;11.80;43.40;;;;;;5032888;28;20056;-60
2021/04/26 10:40:00;;;;;;;5.25;3.00;;;11.90;42.40;;;;;;5028404;28;20026;-59
2021/04/26 10:42:41;;;;;;;6.40;3.50;;;12.30;44.50;;;;;;5022143;28;20040;-60
2021/04/26 10:45:12;;;;;;;8.18;2.60;;;12.30;42.50;;;;;;5015947;28;20034;-59
2021/04/26 10:47:44;;;;;;;6.80;2.58;;;11.90;43.10;;;;;;5030713;28;20039;-58
2021/04/26 10:50:15;;;;;;;6.28;2.72;;;11.80;42.90;;;;;;5028247;28;20033;-58
2021/04/26 10:52:47;;;;;;;4.47;2.45;;;11.40;44.20;;;;;;5036569;28;20160;-57
2021/04/26 10:55:32;;;;;;;2.88;2.38;;;11.20;43.80;;;;;;5018735;28;20080;-56
2021/04/26 10:58:01;;;;;;;5.32;2.63;;;11.30;46.60;;;;;;5025923;28;20076;-58
2021/04/26 11:00:27;;;;;;;7.38;2.78;;;11.60;46.10;;;;;;5030253;28;20037;-60
2021/04/26 11:02:55;;;;;;;6.07;3.60;;;12.10;44.40;;;;;;5033007;28;20041;-58
2021/04/26 11:05:42;;;;;;;4.72;2.88;;;12.50;41.90;;;;;;5020430;28;20105;-57
2021/04/26 11:08:52;;;;;;;4.93;2.80;;;13.10;42.20;;;;;;5021879;28;20123;-59
2021/04/26 11:11:23;;;;;;;3.95;2.50;;;13.20;40.50;;;;;;5041698;28;20120;-58
2021/04/26 11:14:02;;;;;;;3.28;2.35;;;13.20;39.80;;;;;;5021238;28;20095;-58
2021/04/26 11:16:30;;;;;;;5.20;2.83;;;13.20;40.10;;;;;;5029818;28;20037;-58
2021/04/26 11:19:04;;;;;;;3.92;3.05;;;13.10;39.30;;;;;;5015524;28;20065;-57
2021/04/26 11:21:42;;;;;;;2.92;2.42;;;12.90;39.60;;;;;;5021457;28;20035;-62
2021/04/26 11:24:25;;;;;;;4.13;2.88;;;12.70;40.20;;;;;;5030063;28;20030;-60
2021/04/26 11:27:13;;;;;;;6.63;2.60;;;12.60;39.30;;;;;;5027107;28;20420;-58
2021/04/26 11:29:47;;;;;;;5.68;4.13;;;12.50;41.60;;;;;;5016107;28;20049;-59
2021/04/26 11:32:14;;;;;;;4.65;3.03;;;12.50;40.80;;;;;;5026422;28;20490;-59
2021/04/26 11:35:00;;;;;;;4.53;2.53;;;12.30;40.60;;;;;;5024812;28;20125;-60
2021/04/26 11:37:29;;;;;;;4.80;2.63;;;12.10;40.80;;;;;;5024189;28;20025;-58
2021/04/26 11:39:56;;;;;;;5.18;2.92;;;11.90;41.00;;;;;;5017938;28;20418;-60
2021/04/26 11:42:31;;;;;;;4.55;2.53;;;11.90;41.30;;;;;;5012505;28;20033;-60
2021/04/26 11:44:57;;;;;;;3.80;2.72;;;12.00;43.10;;;;;;5025415;28;20048;-61
2021/04/26 11:47:24;;;;;;;3.50;2.30;;;12.60;42.20;;;;;;5024871;28;20043;-58
2021/04/26 11:49:52;;;;;;;6.88;3.75;;;12.70;40.10;;;;;;5030098;28;20056;-56
2021/04/26 11:52:26;;;;;;;4.78;2.72;;;12.70;39.90;;;;;;5027026;28;20075;-60
2021/04/26 11:55:13;;;;;;;5.30;2.70;;;12.40;40.00;;;;;;5021599;28;20057;-59
2021/04/26 11:57:56;;;;;;;4.35;3.17;;;11.80;41.10;;;;;;5015758;28;20073;-60
2021/04/26 12:00:30;;;;;;;3.50;2.95;;;11.60;41.10;;;;;;5025546;28;20061;-58
2021/04/26 12:03:08;;;;;;;6.22;2.95;;;11.40;41.50;;;;;;5022354;28;20032;-59
2021/04/26 12:05:34;;;;;;;4.57;2.35;;;11.30;41.20;;;;;;5022782;28;20030;-57
2021/04/26 12:08:00;;;;;;;5.10;2.63;;;11.30;40.90;;;;;;5020377;28;20061;-57
2021/04/26 12:10:40;;;;;;;6.57;2.60;;;11.70;41.10;;;;;;5015026;28;20780;-62
2021/04/26 12:13:07;;;;;;;4.45;3.00;;;12.00;40.00;;;;;;5021955;28;20061;-60
2021/04/26 12:15:35;;;;;;;3.92;2.53;;;11.60;40.00;;;;;;5021092;28;20576;-63
2021/04/26 12:18:02;;;;;;;4.05;2.70;;;11.40;41.10;;;;;;5014182;28;20095;-62
2021/04/26 12:20:36;;;;;;;3.03;2.42;;;11.40;39.80;;;;;;5024019;28;20111;-61
2021/04/26 12:23:14;;;;;;;3.60;2.42;;;11.50;41.30;;;;;;5020876;28;20501;-62
2021/04/26 12:25:41;;;;;;;6.50;2.70;;;11.80;40.90;;;;;;5024730;28;20048;-66
2021/04/26 12:28:09;;;;;;;4.88;2.90;;;12.00;40.90;;;;;;5030422;28;20026;-65
2021/04/26 12:30:37;;;;;;;3.40;2.60;;;12.40;39.80;;;;;;5023751;28;20066;-65
2021/04/26 12:33:23;;;;;;;5.80;2.63;;;12.50;40.20;;;;;;5029276;28;20068;-65
2021/04/26 12:35:49;;;;;;;4.70;3.00;;;12.60;38.50;;;;;;5032095;28;20087;-66
2021/04/26 12:38:15;;;;;;;3.40;2.50;;;12.10;38.80;;;;;;5030675;28;20021;-64
2021/04/26 12:40:41;;;;;;;3.72;3.15;;;11.90;39.20;;;;;;5028668;28;20045;-65
2021/04/26 12:43:11;;;;;;;4.38;2.70;;;11.50;40.60;;;;;;5028500;28;20037;-65
2021/04/26 12:45:45;;;;;;;5.32;2.90;;;11.70;39.70;;;;;;5026455;28;20119;-68
2021/04/26 12:48:23;;;;;;;4.40;2.77;;;12.00;39.80;;;;;;5030995;28;20025;-66
2021/04/26 12:50:52;;;;;;;3.63;2.90;;;12.40;39.50;;;;;;5020754;28;20022;-66
2021/04/26 12:53:26;;;;;;;6.03;2.70;;;12.90;38.60;;;;;;5035498;28;20456;-65
2021/04/26 12:55:54;;;;;;;5.05;3.00;;;13.10;37.40;;;;;;5024179;28;20426;-64
2021/04/26 12:58:20;;;;;;;5.00;2.67;;;13.10;37.70;;;;;;5026791;28;20041;-65
2021/04/26 13:00:51;;;;;;;5.80;2.80;;;13.00;37.60;;;;;;5027191;28;20034;-67
2021/04/26 13:03:30;;;;;;;16.48;8.35;;;12.80;38.30;;;;;;5022168;28;20025;-65
2021/04/26 13:06:06;;;;;;;3.90;2.85;;;12.50;40.00;;;;;;5025239;28;20033;-64